createdAt,value
2018-06-30T00:00:18.176Z,96832.31
2018-06-30T00:01:54.284Z,96831.19
2018-06-30T00:03:35.735Z,96835.44
2018-06-30T00:05:16.647Z,96835.21
2018-06-30T00:06:53.724Z,96837.36
2018-06-30T00:08:29.698Z,96837.50
2018-06-30T00:10:06.546Z,96842.28
2018-06-30T00:11:43.708Z,96840.56
2018-06-30T00:13:21.201Z,96842.12
2018-06-30T00:14:57.658Z,96846.28
2018-06-30T00:16:36.058Z,96833.33
2018-06-30T00:18:12.767Z,96836.81
2018-06-30T00:19:51.252Z,96836.31
2018-06-30T00:21:30.364Z,96834.93
2018-06-30T00:23:06.731Z,96832.25
2018-06-30T00:24:44.129Z,96833.84
2018-06-30T00:26:21.001Z,96835.09
2018-06-30T00:27:58.458Z,96831.25
2018-06-30T00:29:35.430Z,96831.78
2018-06-30T00:31:12.134Z,96834.75
2018-06-30T00:32:51.262Z,96834.08
2018-06-30T00:34:27.575Z,96830.69
2018-06-30T00:36:06.344Z,96835.30
2018-06-30T00:37:42.032Z,96835.88
2018-06-30T00:39:21.196Z,96830.31
2018-06-30T00:40:57.058Z,96830.13
2018-06-30T00:42:32.982Z,96829.20
2018-06-30T00:44:10.650Z,96827.35
2018-06-30T00:45:47.104Z,96831.97
2018-06-30T00:47:25.332Z,96827.45
2018-06-30T00:49:00.995Z,96827.34
2018-06-30T00:50:38.780Z,96826.06
2018-06-30T00:52:22.788Z,96827.57
2018-06-30T00:54:13.594Z,96830.03
2018-06-30T00:55:51.283Z,96826.56
2018-06-30T00:57:28.076Z,96826.91
2018-06-30T00:59:13.038Z,96829.14
2018-06-30T01:00:53.265Z,96834.30
2018-06-30T01:02:29.067Z,96834.41
2018-06-30T01:04:07.663Z,96833.51
2018-06-30T01:05:45.824Z,96833.09
2018-06-30T01:07:24.719Z,96834.27
2018-06-30T01:09:01.859Z,96832.46
2018-06-30T01:10:40.768Z,96831.51
2018-06-30T01:12:17.238Z,96828.66
2018-06-30T01:13:53.150Z,96827.73
2018-06-30T01:15:30.760Z,96826.44
2018-06-30T01:17:07.988Z,96821.59
2018-06-30T01:18:45.961Z,96821.83
2018-06-30T01:20:27.645Z,96822.13
2018-06-30T01:22:05.787Z,96822.33
2018-06-30T01:23:42.647Z,96820.95
2018-06-30T01:25:18.385Z,96827.50
2018-06-30T01:26:53.752Z,96820.46
2018-06-30T01:28:30.311Z,96819.66
2018-06-30T01:30:15.383Z,96814.70
2018-06-30T01:31:51.284Z,96818.41
2018-06-30T01:33:26.704Z,96811.59
2018-06-30T01:35:02.794Z,96816.89
2018-06-30T01:36:38.309Z,96820.25
2018-06-30T01:38:15.096Z,96816.99
2018-06-30T01:39:50.509Z,96822.22
2018-06-30T01:41:26.663Z,96823.45
2018-06-30T01:43:03.300Z,96819.32
2018-06-30T01:44:38.812Z,96820.74
2018-06-30T01:46:14.809Z,96819.11
2018-06-30T01:47:50.478Z,96818.05
2018-06-30T01:49:27.968Z,96820.67
2018-06-30T01:51:03.130Z,96817.30
2018-06-30T01:52:39.084Z,96817.05
2018-06-30T01:54:17.920Z,96811.47
2018-06-30T01:55:55.355Z,96811.61
2018-06-30T01:57:32.507Z,96812.84
2018-06-30T01:59:10.245Z,96810.31
2018-06-30T02:00:45.922Z,96816.59
2018-06-30T02:02:21.395Z,96816.94
2018-06-30T02:03:57.512Z,96814.23
2018-06-30T02:05:32.956Z,96818.87
2018-06-30T02:07:13.903Z,96819.23
2018-06-30T02:08:49.933Z,96817.05
2018-06-30T02:10:25.885Z,96814.23
2018-06-30T02:12:01.043Z,96817.81
2018-06-30T02:13:37.511Z,96812.63
2018-06-30T02:15:15.895Z,96814.53
2018-06-30T02:16:51.336Z,96816.14
2018-06-30T02:18:28.071Z,96814.00
2018-06-30T02:20:03.913Z,96811.13
2018-06-30T02:21:39.753Z,96807.80
2018-06-30T02:23:14.958Z,96806.80
2018-06-30T02:24:50.837Z,96805.44
2018-06-30T02:26:27.125Z,96802.59
2018-06-30T02:28:02.738Z,96804.75
2018-06-30T02:29:38.137Z,96805.69
2018-06-30T02:31:13.328Z,96799.34
2018-06-30T02:32:49.476Z,96804.90
2018-06-30T02:34:28.385Z,96801.11
2018-06-30T02:36:05.141Z,96805.99
2018-06-30T02:37:42.247Z,96812.32
2018-06-30T02:39:18.026Z,96814.26
2018-06-30T02:40:53.802Z,96811.66
2018-06-30T02:42:30.324Z,96817.98
2018-06-30T02:44:05.515Z,96815.39
2018-06-30T02:45:42.214Z,96816.01
2018-06-30T02:47:19.175Z,96812.22
2018-06-30T02:48:57.701Z,96815.72
2018-06-30T02:50:37.537Z,96818.48
2018-06-30T02:52:13.553Z,96816.05
2018-06-30T02:53:51.567Z,96817.77
2018-06-30T02:55:30.421Z,96814.36
2018-06-30T02:57:11.571Z,96812.12
2018-06-30T02:58:48.659Z,96814.87
2018-06-30T03:00:24.316Z,96808.31
2018-06-30T03:02:02.259Z,96814.25
2018-06-30T03:03:39.161Z,96812.14
2018-06-30T03:05:15.705Z,96808.78
2018-06-30T03:06:51.819Z,96814.16
2018-06-30T03:08:27.670Z,96813.40
2018-06-30T03:10:05.892Z,96810.96
2018-06-30T03:11:43.217Z,96816.15
2018-06-30T03:13:20.530Z,96809.28
2018-06-30T03:14:58.474Z,96809.58
2018-06-30T03:16:34.841Z,96810.19
2018-06-30T03:18:11.572Z,96808.31
2018-06-30T03:19:48.953Z,96812.58
2018-06-30T03:21:31.481Z,96812.89
2018-06-30T03:23:07.639Z,96809.38
2018-06-30T03:24:43.767Z,96811.66
2018-06-30T03:26:20.576Z,96813.80
2018-06-30T03:27:59.667Z,96813.19
2018-06-30T03:29:36.257Z,96814.56
2018-06-30T03:31:12.356Z,96814.96
2018-06-30T03:32:50.390Z,96810.09
2018-06-30T03:34:26.320Z,96810.39
2018-06-30T03:36:02.188Z,96813.13
2018-06-30T03:37:38.197Z,96808.10
2018-06-30T03:39:13.867Z,96811.92
2018-06-30T03:40:50.052Z,96809.75
2018-06-30T03:42:26.931Z,96810.09
2018-06-30T03:44:03.652Z,96809.75
2018-06-30T03:45:39.109Z,96812.06
2018-06-30T03:47:16.037Z,96805.05
2018-06-30T03:48:52.360Z,96803.22
2018-06-30T03:50:30.066Z,96809.33
2018-06-30T03:52:05.848Z,96805.59
2018-06-30T03:53:41.732Z,96797.88
2018-06-30T03:55:17.786Z,96797.05
2018-06-30T03:56:53.926Z,96799.42
2018-06-30T03:58:30.612Z,96796.36
2018-06-30T04:00:09.799Z,96800.14
2018-06-30T04:01:46.520Z,96796.25
2018-06-30T04:03:23.529Z,96796.17
2018-06-30T04:04:59.813Z,96793.89
2018-06-30T04:06:35.950Z,96787.88
2018-06-30T04:08:11.411Z,96797.95
2018-06-30T04:09:47.234Z,96795.59
2018-06-30T04:11:23.941Z,96791.44
2018-06-30T04:13:00.394Z,96794.86
2018-06-30T04:14:36.174Z,96790.97
2018-06-30T04:16:12.684Z,96796.58
2018-06-30T04:17:49.215Z,96787.89
2018-06-30T04:19:25.069Z,96793.22
2018-06-30T04:21:01.103Z,96791.70
2018-06-30T04:22:38.741Z,96788.56
2018-06-30T04:24:14.580Z,96789.79
2018-06-30T04:25:50.837Z,96792.28
2018-06-30T04:27:26.730Z,96790.47
2018-06-30T04:29:11.645Z,96796.45
2018-06-30T04:30:51.739Z,96795.77
2018-06-30T04:32:30.061Z,96798.36
2018-06-30T04:34:11.176Z,96802.23
2018-06-30T04:35:48.745Z,96802.55
2018-06-30T04:37:25.183Z,96803.48
2018-06-30T04:39:00.780Z,96800.44
2018-06-30T04:40:36.589Z,96809.17
2018-06-30T04:42:13.100Z,96805.30
2018-06-30T04:43:49.410Z,96803.70
2018-06-30T04:45:25.516Z,96800.70
2018-06-30T04:47:01.899Z,96806.62
2018-06-30T04:48:38.026Z,96807.98
2018-06-30T04:50:15.619Z,96807.92
2018-06-30T04:51:52.023Z,96812.01
2018-06-30T04:53:28.130Z,96814.30
2018-06-30T04:55:03.951Z,96814.00
2018-06-30T04:56:39.695Z,96807.14
2018-06-30T04:58:20.769Z,96813.77
2018-06-30T04:59:59.380Z,96815.61
2018-06-30T05:01:35.402Z,96818.95
2018-06-30T05:03:12.172Z,96819.78
2018-06-30T05:04:49.394Z,96814.41
2018-06-30T05:06:26.413Z,96821.89
2018-06-30T05:08:03.971Z,96815.37
2018-06-30T05:09:40.293Z,96812.61
2018-06-30T05:11:16.574Z,96816.70
2018-06-30T05:12:53.267Z,96823.50
2018-06-30T05:14:30.871Z,96819.61
2018-06-30T05:16:07.550Z,96823.77
2018-06-30T05:17:44.182Z,96828.79
2018-06-30T05:19:20.687Z,96823.99
2018-06-30T05:20:57.047Z,96820.08
2018-06-30T05:22:32.750Z,96827.25
2018-06-30T05:24:10.573Z,96823.72
2018-06-30T05:25:46.850Z,96822.83
2018-06-30T05:27:25.242Z,96822.77
2018-06-30T05:29:02.060Z,96824.78
2018-06-30T05:30:38.110Z,96822.89
2018-06-30T05:32:16.313Z,96825.66
2018-06-30T05:33:52.580Z,96820.27
2018-06-30T05:35:29.131Z,96821.47
2018-06-30T05:37:05.163Z,96827.89
2018-06-30T05:38:42.299Z,96816.66
2018-06-30T05:40:18.135Z,96821.13
2018-06-30T05:41:55.271Z,96826.14
2018-06-30T05:43:31.915Z,96823.57
2018-06-30T05:45:08.590Z,96819.98
2018-06-30T05:46:44.879Z,96821.45
2018-06-30T05:48:20.534Z,96821.42
2018-06-30T05:49:56.984Z,96822.00
2018-06-30T05:51:34.159Z,96826.05
2018-06-30T05:53:09.873Z,96826.41
2018-06-30T05:54:45.365Z,96824.06
2018-06-30T05:56:21.315Z,96819.97
2018-06-30T05:57:58.772Z,96825.94
2018-06-30T05:59:34.857Z,96823.64
2018-06-30T06:01:10.811Z,96828.86
2018-06-30T06:02:46.933Z,96822.45
2018-06-30T06:04:22.620Z,96823.95
2018-06-30T06:05:58.253Z,96825.34
2018-06-30T06:07:34.487Z,96826.42
2018-06-30T06:09:12.078Z,96822.36
2018-06-30T06:10:48.091Z,96816.78
2018-06-30T06:12:25.373Z,96818.69
2018-06-30T06:14:03.574Z,96819.67
2018-06-30T06:15:56.210Z,96815.81
2018-06-30T06:17:33.223Z,96817.97
2018-06-30T06:19:10.130Z,96816.53
2018-06-30T06:20:46.511Z,96815.91
2018-06-30T06:22:22.599Z,96819.03
2018-06-30T06:23:59.210Z,96819.11
2018-06-30T06:25:35.976Z,96821.38
2018-06-30T06:27:13.160Z,96817.67
2018-06-30T06:28:49.744Z,96815.11
2018-06-30T06:30:27.080Z,96804.19
2018-06-30T06:32:05.532Z,96807.63
2018-06-30T06:33:41.881Z,96812.60
2018-06-30T06:35:18.626Z,96810.00
2018-06-30T06:36:57.512Z,96811.84
2018-06-30T06:38:33.710Z,96807.92
2018-06-30T06:40:11.500Z,96811.95
2018-06-30T06:41:48.964Z,96812.44
2018-06-30T06:43:25.206Z,96815.45
2018-06-30T06:45:03.677Z,96818.77
2018-06-30T06:46:40.342Z,96814.03
2018-06-30T06:48:22.579Z,96816.18
2018-06-30T06:50:00.365Z,96820.08
2018-06-30T06:51:36.475Z,96814.64
2018-06-30T06:53:13.520Z,96815.47
2018-06-30T06:55:20.057Z,96817.77
2018-06-30T06:58:55.678Z,96814.65
2018-06-30T07:00:33.961Z,96817.31
2018-06-30T07:02:09.833Z,96817.55
2018-06-30T07:03:52.590Z,96811.74
2018-06-30T07:05:29.516Z,96820.35
2018-06-30T07:07:06.351Z,96814.20
2018-06-30T07:08:42.660Z,96816.68
2018-06-30T07:10:21.530Z,96810.32
2018-06-30T07:11:58.569Z,96812.34
2018-06-30T07:13:34.777Z,96816.86
2018-06-30T07:15:13.971Z,96818.28
2018-06-30T07:16:53.339Z,96813.52
2018-06-30T07:18:38.880Z,96817.16
2018-06-30T07:20:30.720Z,96816.89
2018-06-30T07:22:07.164Z,96812.37
2018-06-30T07:23:47.640Z,96815.02
2018-06-30T07:25:24.679Z,96809.37
2018-06-30T07:27:03.420Z,96814.80
2018-06-30T07:28:39.730Z,96814.42
2018-06-30T07:30:19.644Z,96811.58
2018-06-30T07:32:02.691Z,96811.58
2018-06-30T07:34:12.338Z,96817.73
2018-06-30T07:36:16.117Z,96812.64
2018-06-30T07:38:07.372Z,96815.05
2018-06-30T07:41:32.679Z,96810.51
2018-06-30T07:43:08.849Z,96802.25
2018-06-30T07:44:46.076Z,96804.38
2018-06-30T07:46:22.270Z,96806.25
2018-06-30T07:48:01.088Z,96801.91
2018-06-30T07:49:42.543Z,96805.38
2018-06-30T07:51:19.773Z,96807.47
2018-06-30T07:52:55.613Z,96806.92
2018-06-30T07:54:33.043Z,96804.72
2018-06-30T07:56:10.923Z,96811.16
2018-06-30T07:58:11.856Z,96808.84
2018-06-30T08:01:45.409Z,96809.91
2018-06-30T08:03:20.994Z,96808.95
2018-06-30T08:04:56.272Z,96814.09
2018-06-30T08:06:31.474Z,96811.74
2018-06-30T08:08:08.477Z,96810.38
2018-06-30T08:09:49.625Z,96812.59
2018-06-30T08:11:26.625Z,96806.69
2018-06-30T08:13:02.616Z,96812.92
2018-06-30T08:14:37.582Z,96818.30
2018-06-30T08:16:14.088Z,96813.90
2018-06-30T08:17:49.860Z,96820.81
2018-06-30T08:19:29.753Z,96816.39
2018-06-30T08:21:04.889Z,96816.45
2018-06-30T08:22:42.124Z,96812.02
2018-06-30T08:24:18.482Z,96808.36
2018-06-30T08:25:56.678Z,96800.84
2018-06-30T08:27:31.719Z,96799.42
2018-06-30T08:29:07.065Z,96799.42
2018-06-30T08:30:43.493Z,96803.73
2018-06-30T08:32:18.799Z,96806.70
2018-06-30T08:33:54.513Z,96797.52
2018-06-30T08:35:31.677Z,96799.58
2018-06-30T08:37:07.217Z,96807.06
2018-06-30T08:38:42.397Z,96811.97
2018-06-30T08:40:17.675Z,96814.25
2018-06-30T08:41:55.264Z,96811.94
2018-06-30T08:43:32.590Z,96799.66
2018-06-30T08:45:08.618Z,96805.36
2018-06-30T08:46:46.070Z,96799.72
2018-06-30T08:48:22.100Z,96801.06
2018-06-30T08:49:57.813Z,96799.57
2018-06-30T08:51:34.035Z,96796.20
2018-06-30T08:53:10.615Z,96794.75
2018-06-30T08:54:46.585Z,96799.20
2018-06-30T08:56:26.945Z,96794.52
2018-06-30T08:58:03.995Z,96801.02
2018-06-30T08:59:42.104Z,96800.83
2018-06-30T09:01:17.237Z,96794.13
2018-06-30T09:02:52.303Z,96798.29
2018-06-30T09:04:29.582Z,96799.92
2018-06-30T09:06:05.047Z,96797.38
2018-06-30T09:07:43.926Z,96799.30
2018-06-30T09:09:20.474Z,96797.89
2018-06-30T09:10:57.272Z,96796.30
2018-06-30T09:12:34.023Z,96802.81
2018-06-30T09:14:12.299Z,96795.06
2018-06-30T09:15:48.807Z,96799.23
2018-06-30T09:17:26.605Z,96796.56
2018-06-30T09:19:06.572Z,96794.73
2018-06-30T09:20:52.828Z,96796.05
2018-06-30T09:22:31.823Z,96794.29
2018-06-30T09:24:10.374Z,96793.88
2018-06-30T09:25:49.593Z,96798.52
2018-06-30T09:34:41.515Z,96792.57
2018-06-30T09:36:18.287Z,96793.56
2018-06-30T09:37:54.756Z,96794.92
2018-06-30T09:39:30.105Z,96795.39
2018-06-30T09:41:06.423Z,96798.86
2018-06-30T09:42:43.333Z,96795.48
2018-06-30T09:44:21.038Z,96793.78
2018-06-30T09:45:56.824Z,96792.16
2018-06-30T09:47:33.855Z,96793.66
2018-06-30T09:49:12.519Z,96796.88
2018-06-30T09:50:48.624Z,96792.10
2018-06-30T09:52:56.490Z,96788.93
2018-06-30T09:54:37.151Z,96795.73
2018-06-30T09:56:19.700Z,96787.48
2018-06-30T09:57:58.270Z,96793.59
2018-06-30T09:59:34.216Z,96790.05
2018-06-30T10:01:14.902Z,96796.65
2018-06-30T10:02:50.647Z,96788.78
2018-06-30T10:04:31.062Z,96791.17
2018-06-30T10:06:11.557Z,96804.73
2018-06-30T10:07:49.063Z,96799.86
2018-06-30T10:09:25.360Z,96791.45
2018-06-30T10:11:03.352Z,96794.13
2018-06-30T10:12:41.751Z,96791.81
2018-06-30T10:14:20.502Z,96795.06
2018-06-30T10:15:57.062Z,96783.17
2018-06-30T10:17:35.850Z,96781.95
2018-06-30T10:19:12.563Z,96785.06
2018-06-30T10:20:47.849Z,96784.96
2018-06-30T10:22:24.044Z,96782.78
2018-06-30T10:23:59.437Z,96781.11
2018-06-30T10:25:35.013Z,96778.69
2018-06-30T10:27:11.367Z,96785.13
2018-06-30T10:28:46.478Z,96785.60
2018-06-30T10:30:22.484Z,96785.37
2018-06-30T10:32:01.323Z,96775.22
2018-06-30T10:33:39.126Z,96781.67
2018-06-30T10:35:16.574Z,96780.23
2018-06-30T10:36:53.646Z,96775.37
2018-06-30T10:38:29.929Z,96778.52
2018-06-30T10:40:07.157Z,96776.77
2018-06-30T10:41:42.873Z,96787.58
2018-06-30T10:43:19.223Z,96770.47
2018-06-30T10:44:56.311Z,96769.67
2018-06-30T10:46:33.195Z,96769.77
2018-06-30T10:48:09.069Z,96771.66
2018-06-30T10:49:53.929Z,96767.92
2018-06-30T10:51:31.262Z,96763.48
2018-06-30T10:53:07.800Z,96764.84
2018-06-30T10:54:49.894Z,96758.05
2018-06-30T10:56:32.121Z,96763.83
2018-06-30T10:58:10.878Z,96766.59
2018-06-30T10:59:50.038Z,96768.58
2018-06-30T11:01:27.023Z,96764.98
2018-06-30T11:03:06.034Z,96769.58
2018-06-30T11:04:42.917Z,96761.55
2018-06-30T11:06:19.553Z,96769.09
2018-06-30T11:07:57.315Z,96765.51
2018-06-30T11:09:35.347Z,96763.31
2018-06-30T11:11:12.245Z,96764.72
2018-06-30T11:12:48.838Z,96761.30
2018-06-30T11:14:25.293Z,96762.25
2018-06-30T11:16:03.273Z,96761.70
2018-06-30T11:17:39.152Z,96758.80
2018-06-30T11:19:15.891Z,96758.59
2018-06-30T11:20:51.963Z,96759.84
2018-06-30T11:22:28.778Z,96751.20
2018-06-30T11:24:09.099Z,96761.59
2018-06-30T11:25:46.863Z,96759.84
2018-06-30T11:27:22.763Z,96763.57
2018-06-30T11:29:04.476Z,96763.69
2018-06-30T11:30:40.327Z,96757.97
2018-06-30T11:32:18.490Z,96756.71
2018-06-30T11:33:56.377Z,96746.42
2018-06-30T11:35:32.591Z,96747.94
2018-06-30T11:37:09.780Z,96750.50
2018-06-30T11:38:45.221Z,96745.34
2018-06-30T11:40:20.619Z,96744.84
2018-06-30T11:41:58.989Z,96748.86
2018-06-30T11:43:36.829Z,96745.38
2018-06-30T11:45:21.484Z,96741.02
2018-06-30T11:47:02.703Z,96747.68
2018-06-30T11:48:44.724Z,96744.83
2018-06-30T11:50:23.903Z,96739.30
2018-06-30T11:51:59.681Z,96739.99
2018-06-30T11:53:38.897Z,96740.52
2018-06-30T11:55:19.136Z,96738.92
2018-06-30T11:56:54.321Z,96744.53
2018-06-30T12:00:19.840Z,96730.01
2018-06-30T12:01:57.333Z,96730.80
2018-06-30T12:03:34.855Z,96733.96
2018-06-30T12:05:15.502Z,96737.39
2018-06-30T12:06:53.877Z,96732.07
2018-06-30T12:08:31.991Z,96728.98
2018-06-30T12:10:08.693Z,96732.36
2018-06-30T12:11:48.054Z,96725.92
2018-06-30T12:13:25.088Z,96732.88
2018-06-30T12:15:04.947Z,96719.19
2018-06-30T12:16:45.095Z,96724.01
2018-06-30T12:18:21.045Z,96729.36
2018-06-30T12:19:57.267Z,96721.94
2018-06-30T12:21:36.692Z,96720.20
2018-06-30T12:23:18.732Z,96725.61
2018-06-30T12:24:58.409Z,96730.91
2018-06-30T12:26:36.393Z,96728.83
2018-06-30T12:28:13.273Z,96724.23
2018-06-30T12:29:53.480Z,96728.04
2018-06-30T12:31:31.887Z,96721.38
2018-06-30T12:33:08.340Z,96726.77
2018-06-30T12:34:43.444Z,96725.31
2018-06-30T12:36:20.420Z,96726.41
2018-06-30T12:37:55.571Z,96721.51
2018-06-30T12:39:34.751Z,96729.94
2018-06-30T12:41:11.390Z,96732.52
2018-06-30T12:42:47.264Z,96731.25
2018-06-30T12:44:26.099Z,96732.77
2018-06-30T12:46:02.436Z,96732.43
2018-06-30T12:47:41.521Z,96727.52
2018-06-30T12:49:23.986Z,96724.48
2018-06-30T12:50:59.622Z,96718.02
2018-06-30T12:52:36.886Z,96724.07
2018-06-30T12:54:13.471Z,96718.72
2018-06-30T12:55:51.373Z,96714.21
2018-06-30T12:57:27.155Z,96719.50
2018-06-30T12:59:03.071Z,96720.20
2018-06-30T13:00:37.988Z,96721.14
2018-06-30T13:02:13.627Z,96724.02
2018-06-30T13:03:49.368Z,96721.25
2018-06-30T13:05:29.321Z,96718.52
2018-06-30T13:07:04.739Z,96720.28
2018-06-30T13:08:40.032Z,96719.52
2018-06-30T13:10:20.520Z,96715.53
2018-06-30T13:11:57.868Z,96714.94
2018-06-30T13:13:33.698Z,96716.06
2018-06-30T13:15:10.058Z,96717.52
2018-06-30T13:16:46.476Z,96710.66
2018-06-30T13:18:23.960Z,96710.13
2018-06-30T13:19:59.473Z,96705.15
2018-06-30T13:21:35.404Z,96707.98
2018-06-30T13:23:14.898Z,96717.53
2018-06-30T13:24:55.063Z,96712.75
2018-06-30T13:26:31.035Z,96706.27
2018-06-30T13:28:06.295Z,96713.80
2018-06-30T13:29:41.764Z,96705.01
2018-06-30T13:31:17.987Z,96712.03
2018-06-30T13:32:53.233Z,96718.69
2018-06-30T13:34:28.579Z,96708.67
2018-06-30T13:36:04.083Z,96704.17
2018-06-30T13:37:39.261Z,96709.55
2018-06-30T13:39:15.590Z,96713.27
2018-06-30T13:40:54.537Z,96706.17
2018-06-30T13:43:34.864Z,96709.79
2018-06-30T13:45:14.009Z,96708.23
2018-06-30T13:46:50.168Z,96704.92
2018-06-30T13:48:28.230Z,96709.36
2018-06-30T13:50:07.105Z,96711.25
2018-06-30T13:51:43.302Z,96707.46
2018-06-30T13:53:35.580Z,96711.12
2018-06-30T13:55:14.781Z,96712.70
2018-06-30T13:56:51.597Z,96707.38
2018-06-30T13:58:28.482Z,96715.87
2018-06-30T14:00:08.783Z,96713.80
2018-06-30T14:01:46.559Z,96710.98
2018-06-30T14:03:23.802Z,96711.81
2018-06-30T14:05:02.389Z,96704.52
2018-06-30T14:06:37.669Z,96708.56
2018-06-30T14:08:14.345Z,96702.01
2018-06-30T14:09:52.525Z,96706.58
2018-06-30T14:11:29.461Z,96703.27
2018-06-30T14:13:07.761Z,96704.09
2018-06-30T14:14:43.581Z,96699.44
2018-06-30T14:16:21.709Z,96701.13
2018-06-30T14:17:57.838Z,96697.36
2018-06-30T14:19:40.536Z,96706.63
2018-06-30T14:21:16.315Z,96699.19
2018-06-30T14:22:52.709Z,96706.25
2018-06-30T14:24:30.253Z,96702.39
2018-06-30T14:26:06.547Z,96708.27
2018-06-30T14:27:42.864Z,96704.75
2018-06-30T14:29:19.078Z,96701.78
2018-06-30T14:30:55.308Z,96704.84
2018-06-30T14:32:32.186Z,96702.56
2018-06-30T14:34:09.409Z,96698.53
2018-06-30T14:35:47.465Z,96694.38
2018-06-30T14:37:24.244Z,96701.91
2018-06-30T14:39:04.132Z,96695.94
2018-06-30T14:40:40.591Z,96686.91
2018-06-30T14:42:15.984Z,96693.31
2018-06-30T14:43:52.701Z,96695.26
2018-06-30T14:45:29.115Z,96688.80
2018-06-30T14:47:06.600Z,96695.03
2018-06-30T14:48:41.960Z,96694.17
2018-06-30T14:50:19.823Z,96686.03
2018-06-30T14:52:02.279Z,96692.63
2018-06-30T14:53:41.745Z,96691.13
2018-06-30T14:55:22.277Z,96687.28
2018-06-30T14:58:50.279Z,96691.95
2018-06-30T15:00:28.902Z,96691.70
2018-06-30T15:02:09.782Z,96695.67
2018-06-30T15:03:47.484Z,96693.51
2018-06-30T15:05:28.162Z,96693.34
2018-06-30T15:07:08.110Z,96696.66
2018-06-30T15:08:48.129Z,96686.81
2018-06-30T15:10:28.033Z,96689.85
2018-06-30T15:13:48.753Z,96690.94
2018-06-30T15:15:25.443Z,96687.97
2018-06-30T15:17:02.264Z,96686.25
2018-06-30T15:18:41.316Z,96692.36
2018-06-30T15:20:16.825Z,96688.98
2018-06-30T15:21:55.502Z,96685.08
2018-06-30T15:23:35.523Z,96687.72
2018-06-30T15:25:12.312Z,96684.24
2018-06-30T15:26:47.290Z,96680.53
2018-06-30T15:28:22.724Z,96686.97
2018-06-30T15:30:05.874Z,96686.58
2018-06-30T15:31:42.724Z,96685.58
2018-06-30T15:33:17.632Z,96686.25
2018-06-30T15:34:54.633Z,96689.41
2018-06-30T15:36:30.543Z,96684.23
2018-06-30T15:38:07.597Z,96692.84
2018-06-30T15:39:43.258Z,96687.63
2018-06-30T15:41:19.720Z,96686.88
2018-06-30T15:42:55.355Z,96690.54
2018-06-30T15:44:33.022Z,96694.81
2018-06-30T15:46:08.577Z,96686.41
2018-06-30T15:47:46.483Z,96687.28
2018-06-30T15:49:32.501Z,96690.94
2018-06-30T15:51:09.469Z,96690.80
2018-06-30T15:52:57.053Z,96690.14
2018-06-30T15:54:32.949Z,96693.42
2018-06-30T15:56:10.366Z,96694.85
2018-06-30T15:57:46.260Z,96694.16
2018-06-30T15:59:22.451Z,96692.39
2018-06-30T16:00:57.511Z,96693.09
2018-06-30T16:02:39.711Z,96693.50
2018-06-30T16:04:14.959Z,96691.83
2018-06-30T16:05:54.507Z,96691.73
2018-06-30T16:07:29.650Z,96702.56
2018-06-30T16:09:09.036Z,96697.90
2018-06-30T16:10:45.468Z,96697.09
2018-06-30T16:12:21.797Z,96700.37
2018-06-30T16:13:58.911Z,96695.94
2018-06-30T16:15:33.756Z,96693.53
2018-06-30T16:17:09.150Z,96687.95
2018-06-30T16:18:47.355Z,96693.11
2018-06-30T16:20:24.766Z,96692.09
2018-06-30T16:22:02.351Z,96692.32
2018-06-30T16:23:40.313Z,96690.91
2018-06-30T16:25:16.757Z,96690.50
2018-06-30T16:26:51.877Z,96689.48
2018-06-30T16:28:26.741Z,96687.47
2018-06-30T16:30:04.549Z,96694.98
2018-06-30T16:31:42.279Z,96686.67
2018-06-30T16:33:21.042Z,96687.02
2018-06-30T16:34:56.769Z,96682.22
2018-06-30T16:36:33.264Z,96688.94
2018-06-30T16:38:09.922Z,96687.16
2018-06-30T16:39:47.912Z,96680.92
2018-06-30T16:41:24.680Z,96687.51
2018-06-30T16:43:01.297Z,96690.48
2018-06-30T16:44:36.205Z,96687.78
2018-06-30T16:46:14.511Z,96690.41
2018-06-30T16:47:49.355Z,96694.27
2018-06-30T16:49:24.866Z,96693.13
2018-06-30T16:51:01.218Z,96687.20
2018-06-30T16:52:40.732Z,96693.25
2018-06-30T16:54:15.725Z,96690.41
2018-06-30T16:55:55.111Z,96691.38
2018-06-30T16:57:30.616Z,96687.91
2018-06-30T16:59:07.402Z,96685.75
2018-06-30T17:00:48.870Z,96683.50
2018-06-30T17:02:23.889Z,96692.80
2018-06-30T17:04:13.515Z,96687.16
2018-06-30T17:05:48.590Z,96689.14
2018-06-30T17:07:28.917Z,96682.75
2018-06-30T17:09:10.335Z,96685.41
2018-06-30T17:10:45.937Z,96686.81
2018-06-30T17:12:21.807Z,96692.78
2018-06-30T17:13:58.654Z,96685.31
2018-06-30T17:15:41.109Z,96688.47
2018-06-30T17:17:22.770Z,96698.52
2018-06-30T17:18:59.036Z,96697.26
2018-06-30T17:20:34.780Z,96699.23
2018-06-30T17:22:11.509Z,96703.14
2018-06-30T17:23:47.672Z,96697.45
2018-06-30T17:25:25.328Z,96688.47
2018-06-30T17:27:01.663Z,96696.65
2018-06-30T17:28:41.817Z,96691.26
2018-06-30T17:30:17.972Z,96697.00
2018-06-30T17:31:56.819Z,96695.80
2018-06-30T17:33:33.213Z,96696.30
2018-06-30T17:35:09.980Z,96690.68
2018-06-30T17:36:46.451Z,96696.00
2018-06-30T17:38:21.644Z,96695.09
2018-06-30T17:39:59.243Z,96688.42
2018-06-30T17:41:42.629Z,96696.30
2018-06-30T17:43:22.343Z,96695.80
2018-06-30T17:44:59.222Z,96705.27
2018-06-30T17:46:35.593Z,96701.03
2018-06-30T17:49:52.516Z,96695.73
2018-06-30T17:51:29.842Z,96702.47
2018-06-30T17:53:05.324Z,96703.44
2018-06-30T17:54:42.221Z,96699.97
2018-06-30T17:56:18.365Z,96702.63
2018-06-30T17:57:57.716Z,96699.38
2018-06-30T17:59:36.038Z,96705.84
2018-06-30T18:01:15.051Z,96704.64
2018-06-30T18:02:52.850Z,96707.04
2018-06-30T18:04:31.167Z,96709.80
2018-06-30T18:06:07.245Z,96713.67
2018-06-30T18:07:44.267Z,96707.25
2018-06-30T18:10:57.192Z,96711.31
2018-06-30T18:12:32.762Z,96716.10
2018-06-30T18:14:09.473Z,96715.66
2018-06-30T18:15:44.816Z,96713.80
2018-06-30T18:17:20.399Z,96713.46
2018-06-30T18:18:58.645Z,96719.33
2018-06-30T18:20:33.569Z,96714.14
2018-06-30T18:22:09.239Z,96716.22
2018-06-30T18:23:45.361Z,96706.39
2018-06-30T18:25:21.099Z,96716.51
2018-06-30T18:26:58.614Z,96715.23
2018-06-30T18:28:37.633Z,96722.98
2018-06-30T18:30:16.887Z,96713.80
2018-06-30T18:36:58.514Z,96717.13
2018-06-30T18:38:35.883Z,96724.06
2018-06-30T18:40:13.224Z,96718.52
2018-06-30T18:42:21.981Z,96723.92
2018-06-30T18:43:57.844Z,96721.48
2018-06-30T18:45:35.280Z,96721.05
2018-06-30T18:47:15.366Z,96728.28
2018-06-30T18:48:53.494Z,96724.01
2018-06-30T18:50:29.159Z,96727.86
2018-06-30T18:52:04.319Z,96727.75
2018-06-30T18:53:55.426Z,96728.18
2018-06-30T18:55:32.197Z,96727.55
2018-06-30T18:57:11.458Z,96726.56
2018-06-30T18:58:49.734Z,96721.30
2018-06-30T19:00:26.708Z,96729.59
2018-06-30T19:02:09.843Z,96727.30
2018-06-30T19:03:50.739Z,96727.62
2018-06-30T19:05:27.195Z,96727.18
2018-06-30T19:07:03.408Z,96731.09
2018-06-30T19:08:38.913Z,96734.29
2018-06-30T19:10:17.833Z,96734.23
2018-06-30T19:11:54.953Z,96735.01
2018-06-30T19:13:30.794Z,96731.16
2018-06-30T19:15:24.284Z,96739.83
2018-06-30T19:17:03.825Z,96738.37
2018-06-30T19:18:41.820Z,96739.20
2018-06-30T19:20:17.829Z,96746.16
2018-06-30T19:21:56.004Z,96742.97
2018-06-30T19:23:31.668Z,96745.22
2018-06-30T19:25:09.635Z,96744.60
2018-06-30T19:26:46.832Z,96745.91
2018-06-30T19:28:25.248Z,96746.94
2018-06-30T19:30:00.343Z,96746.97
2018-06-30T19:31:41.113Z,96751.12
2018-06-30T19:33:23.769Z,96750.33
2018-06-30T19:35:02.746Z,96757.36